createdAt,value
2022-10-21T00:01:00.292Z,95434.1
2022-10-21T00:02:02.513Z,95433.7
2022-10-21T00:03:04.989Z,95429.8
2022-10-21T00:04:07.466Z,95436.9
2022-10-21T00:05:09.383Z,95437.2
2022-10-21T00:06:11.890Z,95431.6
2022-10-21T00:07:14.379Z,95433.5
2022-10-21T00:08:16.640Z,95429.5
2022-10-21T00:09:19.132Z,95430
2022-10-21T00:10:21.349Z,95432.4
2022-10-21T00:11:23.821Z,95436.2
2022-10-21T00:12:26.291Z,95434.4
2022-10-21T00:13:28.773Z,95432.9
2022-10-21T00:14:31.236Z,95430.5
2022-10-21T00:15:33.718Z,95431.9
2022-10-21T00:16:36.188Z,95430
2022-10-21T00:17:38.693Z,95425.3
2022-10-21T00:18:40.885Z,95420.6
2022-10-21T00:19:43.363Z,95421
2022-10-21T00:20:45.859Z,95416.8
2022-10-21T00:21:48.375Z,95413.7
2022-10-21T00:22:50.291Z,95410.8
2022-10-21T00:23:52.538Z,95408.5
2022-10-21T00:24:55.005Z,95404.7
2022-10-21T00:25:57.491Z,95410.8
2022-10-21T00:26:59.661Z,95412.6
2022-10-21T00:28:01.866Z,95418.9
2022-10-21T00:29:03.783Z,95416.7
2022-10-21T00:30:06.009Z,95421.4
2022-10-21T00:31:08.198Z,95418.3
2022-10-21T00:32:10.681Z,95420.2
2022-10-21T00:33:12.896Z,95417.9
2022-10-21T00:34:15.360Z,95418.2
2022-10-21T00:35:17.567Z,95419.7
2022-10-21T00:36:20.067Z,95417.7
2022-10-21T00:37:22.530Z,95418.4
2022-10-21T00:38:25.074Z,95420.2
2022-10-21T00:39:27.679Z,95419
2022-10-21T00:40:29.884Z,95415.3
2022-10-21T00:41:32.094Z,95414.1
2022-10-21T00:42:34.691Z,95416.3
2022-10-21T00:43:37.606Z,95416.8
2022-10-21T00:44:39.803Z,95417.4
2022-10-21T00:45:42.015Z,95415.9
2022-10-21T00:46:44.488Z,95416.9
2022-10-21T00:48:50.279Z,95412
2022-10-21T00:49:52.740Z,95413.5
2022-10-21T00:50:54.942Z,95416
2022-10-21T00:51:57.151Z,95419
2022-10-21T00:52:59.629Z,95420.4
2022-10-21T00:54:02.130Z,95421.3
2022-10-21T00:55:04.676Z,95419.2
2022-10-21T00:56:07.169Z,95421.8
2022-10-21T00:57:09.941Z,95417.8
2022-10-21T00:58:12.136Z,95419.4
2022-10-21T00:59:14.606Z,95413.4
2022-10-21T01:00:17.069Z,95411
2022-10-21T01:02:24.266Z,95411.6
2022-10-21T01:03:26.749Z,95411.5
2022-10-21T01:04:29.239Z,95410.2
2022-10-21T01:05:31.151Z,95414
2022-10-21T01:06:33.638Z,95411.4
2022-10-21T01:08:41.465Z,95410.7
2022-10-21T01:09:44.187Z,95410.6
2022-10-21T01:10:46.690Z,95411.4
2022-10-21T01:11:48.871Z,95410.3
2022-10-21T01:12:51.339Z,95406.3
2022-10-21T01:13:53.815Z,95407.8
2022-10-21T01:14:56.500Z,95410.1
2022-10-21T01:15:58.521Z,95412.1
2022-10-21T01:17:00.737Z,95412.4
2022-10-21T01:18:03.214Z,95413.5
2022-10-21T01:19:05.411Z,95413.3
2022-10-21T01:20:07.627Z,95409.2
2022-10-21T01:21:10.086Z,95410.6
2022-10-21T01:22:12.568Z,95409.1
2022-10-21T01:23:14.504Z,95408.6
2022-10-21T01:24:16.995Z,95414.2
2022-10-21T01:25:19.202Z,95409.9
2022-10-21T01:26:21.716Z,95407
2022-10-21T01:27:24.182Z,95403.1
2022-10-21T01:28:26.366Z,95401
2022-10-21T01:29:28.847Z,95404.1
2022-10-21T01:30:31.330Z,95409.6
2022-10-21T01:31:33.268Z,95403.9
2022-10-21T01:32:35.736Z,95405.8
2022-10-21T01:33:37.929Z,95403.4
2022-10-21T01:34:40.138Z,95402.7
2022-10-21T01:35:42.627Z,95399.4
2022-10-21T01:36:45.093Z,95405
2022-10-21T01:37:47.713Z,95401
2022-10-21T01:38:50.066Z,95400.1
2022-10-21T01:39:52.268Z,95397.8
2022-10-21T01:40:54.764Z,95393
2022-10-21T01:41:57.307Z,95389.4
2022-10-21T01:42:59.655Z,95379.6
2022-10-21T01:44:02.124Z,95385.5
2022-10-21T01:45:04.045Z,95379.3
2022-10-21T01:46:06.222Z,95376.3
2022-10-21T01:47:08.697Z,95373.4
2022-10-21T01:48:11.174Z,95368.4
2022-10-21T01:49:13.653Z,95370
2022-10-21T01:50:15.857Z,95377.3
2022-10-21T01:51:18.397Z,95375.9
2022-10-21T01:52:20.961Z,95377.6
2022-10-21T01:53:23.429Z,95372.8
2022-10-21T01:54:25.909Z,95366.9
2022-10-21T01:55:28.413Z,95369.7
2022-10-21T01:56:30.631Z,95366.1
2022-10-21T01:57:32.862Z,95367.9
2022-10-21T01:58:35.325Z,95367.4
2022-10-21T01:59:37.527Z,95369.9
2022-10-21T02:00:40.312Z,95366.3
2022-10-21T02:01:42.908Z,95362.9
2022-10-21T02:02:45.381Z,95366.1
2022-10-21T02:03:47.575Z,95365
2022-10-21T02:04:49.757Z,95366.1
2022-10-21T02:05:51.963Z,95365.1
2022-10-21T02:06:54.196Z,95361.7
2022-10-21T02:07:56.660Z,95360.2
2022-10-21T02:08:59.556Z,95354.4
2022-10-21T02:10:02.143Z,95358.2
2022-10-21T02:11:04.376Z,95356.1
2022-10-21T02:12:06.859Z,95358.6
2022-10-21T02:13:09.611Z,95362.9
2022-10-21T02:14:11.824Z,95356.4
2022-10-21T02:15:14.033Z,95358.1
2022-10-21T02:16:16.223Z,95358.1
2022-10-21T02:17:18.693Z,95359.6
2022-10-21T02:18:20.876Z,95354.6
2022-10-21T02:19:23.380Z,95358.1
2022-10-21T02:20:25.993Z,95359.2
2022-10-21T02:21:27.920Z,95356.2
2022-10-21T02:22:30.147Z,95354.9
2022-10-21T02:23:32.345Z,95354.9
2022-10-21T02:24:34.553Z,95352.4
2022-10-21T02:25:37.696Z,95351.2
2022-10-21T02:26:39.600Z,95347.5
2022-10-21T02:27:41.840Z,95349.1
2022-10-21T02:28:44.074Z,95349.2
2022-10-21T02:29:46.557Z,95350.6
2022-10-21T02:30:49.031Z,95353.4
2022-10-21T02:31:51.225Z,95357.7
2022-10-21T02:32:53.151Z,95353.7
2022-10-21T02:33:55.053Z,95350.3
2022-10-21T02:34:57.519Z,95346.9
2022-10-21T02:36:00.000Z,95345.2
2022-10-21T02:37:02.189Z,95342.1
2022-10-21T02:38:04.115Z,95336.1
2022-10-21T02:39:06.594Z,95335.8
2022-10-21T02:40:09.061Z,95332.8
2022-10-21T02:41:11.532Z,95329.9
2022-10-21T02:42:14.047Z,95325.2
2022-10-21T02:43:15.992Z,95325.9
2022-10-21T02:44:18.501Z,95323.3
2022-10-21T02:45:20.965Z,95324.5
2022-10-21T02:46:23.437Z,95319.4
2022-10-21T02:47:25.639Z,95317.8
2022-10-21T02:48:27.845Z,95313.4
2022-10-21T02:49:30.045Z,95312.8
2022-10-21T02:50:32.518Z,95310.1
2022-10-21T02:51:34.718Z,95303.9
2022-10-21T02:52:37.198Z,95302.6
2022-10-21T02:53:39.688Z,95304.1
2022-10-21T02:54:42.162Z,95296.4
2022-10-21T02:55:44.367Z,95296.4
2022-10-21T02:56:46.851Z,95292.9
2022-10-21T02:57:49.342Z,95296.5
2022-10-21T02:58:51.830Z,95295.7
2022-10-21T02:59:54.334Z,95295.9
2022-10-21T03:00:57.083Z,95294.8
2022-10-21T03:01:59.642Z,95300.4
2022-10-21T03:03:01.815Z,95298.8
2022-10-21T03:04:04.290Z,95298.8
2022-10-21T03:05:06.763Z,95296.4
2022-10-21T03:06:08.966Z,95300.7
2022-10-21T03:07:11.204Z,95302.6
2022-10-21T03:08:13.406Z,95306.6
2022-10-21T03:09:15.901Z,95300.5
2022-10-21T03:10:17.817Z,95307.6
2022-10-21T03:11:20.284Z,95306.2
2022-10-21T03:12:22.755Z,95310.5
2022-10-21T03:13:25.236Z,95311.3
2022-10-21T03:14:27.736Z,95306.2
2022-10-21T03:15:30.238Z,95308.2
2022-10-21T03:16:32.705Z,95314.8
2022-10-21T03:17:34.898Z,95312.7
2022-10-21T03:18:37.372Z,95314.3
2022-10-21T03:19:39.300Z,95314.7
2022-10-21T03:20:41.842Z,95308.6
2022-10-21T03:21:43.766Z,95311.7
2022-10-21T03:22:46.544Z,95309.9
2022-10-21T03:23:48.727Z,95309.2
2022-10-21T03:24:51.228Z,95304.1
2022-10-21T03:25:53.693Z,95305.8
2022-10-21T03:26:56.177Z,95309.3
2022-10-21T03:27:58.653Z,95307.5
2022-10-21T03:29:00.852Z,95309.7
2022-10-21T03:30:03.071Z,95307.5
2022-10-21T03:31:05.350Z,95307
2022-10-21T03:32:07.826Z,95302.8
2022-10-21T03:33:10.000Z,95308
2022-10-21T03:34:12.203Z,95303.5
2022-10-21T03:35:14.447Z,95304.5
2022-10-21T03:36:17.003Z,95304
2022-10-21T03:37:19.205Z,95297.7
2022-10-21T03:38:21.433Z,95295.5
2022-10-21T03:39:23.903Z,95296.9
2022-10-21T03:40:26.408Z,95296.5
2022-10-21T03:41:28.874Z,95297.3
2022-10-21T03:42:31.347Z,95294
2022-10-21T03:43:33.814Z,95297.9
2022-10-21T03:44:36.304Z,95298.7
2022-10-21T03:45:38.807Z,95297.8
2022-10-21T03:46:41.025Z,95297.8
2022-10-21T03:47:43.222Z,95295.2
2022-10-21T03:48:45.423Z,95295.9
2022-10-21T03:49:47.338Z,95293
2022-10-21T03:50:49.816Z,95291.8
2022-10-21T03:51:52.279Z,95286.2
2022-10-21T03:52:54.484Z,95283.2
2022-10-21T03:53:56.964Z,95284.8
2022-10-21T03:54:59.452Z,95282.4
2022-10-21T03:56:01.642Z,95278.3
2022-10-21T03:57:04.105Z,95272.5
2022-10-21T03:58:06.293Z,95272.7
2022-10-21T03:59:08.511Z,95263.9
2022-10-21T04:01:15.077Z,95259.3
2022-10-21T04:02:17.724Z,95253.8
2022-10-21T04:03:19.900Z,95252.5
2022-10-21T04:04:22.419Z,95250.7
2022-10-21T04:05:24.617Z,95243.5
2022-10-21T04:06:26.807Z,95245.5
2022-10-21T04:07:29.285Z,95244
2022-10-21T04:08:31.699Z,95242.1
2022-10-21T04:09:34.218Z,95245
2022-10-21T04:10:37.231Z,95245.3
2022-10-21T04:11:39.724Z,95243
2022-10-21T04:12:42.520Z,95242.4
2022-10-21T04:13:44.718Z,95237.7
2022-10-21T04:14:47.189Z,95240.4
2022-10-21T04:15:49.687Z,95231.7
2022-10-21T04:17:57.185Z,95231.8
2022-10-21T04:18:59.684Z,95229
2022-10-21T04:20:02.166Z,95225.4
2022-10-21T04:21:04.378Z,95226.1
2022-10-21T04:22:06.329Z,95224.9
2022-10-21T04:23:08.800Z,95224.5
2022-10-21T04:24:11.260Z,95227.2
2022-10-21T04:25:13.463Z,95224.4
2022-10-21T04:26:15.634Z,95225.4
2022-10-21T04:27:17.857Z,95224.5
2022-10-21T04:28:20.041Z,95225.5
2022-10-21T04:29:22.519Z,95227.8
2022-10-21T04:30:25.000Z,95229.9
2022-10-21T04:32:32.203Z,95225.1
2022-10-21T04:33:34.718Z,95226.4
2022-10-21T04:34:36.661Z,95224.2
2022-10-21T04:35:38.595Z,95218.3
2022-10-21T04:36:41.502Z,95222.8
2022-10-21T04:37:43.731Z,95216.9
2022-10-21T04:38:46.220Z,95217.6
2022-10-21T04:39:48.715Z,95217.5
2022-10-21T04:40:50.884Z,95215.2
2022-10-21T04:41:53.362Z,95208.5
2022-10-21T04:42:55.558Z,95199.3
2022-10-21T04:43:57.733Z,95196.9
2022-10-21T04:44:59.911Z,95193.2
2022-10-21T04:46:02.091Z,95193.7
2022-10-21T04:47:03.720Z,95188.4
2022-10-21T04:48:06.206Z,95183.9
2022-10-21T04:49:08.441Z,95179.1
2022-10-21T04:50:10.662Z,95177.5
2022-10-21T04:51:13.134Z,95178.3
2022-10-21T04:52:15.332Z,95178.1
2022-10-21T04:53:17.519Z,95179.5
2022-10-21T04:54:20.008Z,95182.6
2022-10-21T04:55:22.482Z,95177
2022-10-21T04:56:24.677Z,95180.4
2022-10-21T04:57:27.149Z,95182.1
2022-10-21T04:58:29.665Z,95170.5
2022-10-21T04:59:32.132Z,95174.5
2022-10-21T05:00:34.635Z,95173.6
2022-10-21T05:01:36.949Z,95174.1
2022-10-21T05:02:41.181Z,95173.9
2022-10-21T05:03:44.217Z,95176.2
2022-10-21T05:04:46.730Z,95177.5
2022-10-21T05:05:49.220Z,95173.7
2022-10-21T05:06:51.149Z,95176.2
2022-10-21T05:07:53.079Z,95171.3
2022-10-21T05:08:55.678Z,95166.6
2022-10-21T05:09:57.701Z,95162.6
2022-10-21T05:10:59.897Z,95158.5
2022-10-21T05:12:02.363Z,95154.7
2022-10-21T05:13:04.837Z,95147.9
2022-10-21T05:14:07.322Z,95152.5
2022-10-21T05:15:09.513Z,95147.5
2022-10-21T05:16:11.975Z,95147.3
2022-10-21T05:17:14.174Z,95140.7
2022-10-21T05:18:16.373Z,95137.6
2022-10-21T05:19:18.865Z,95136.2
2022-10-21T05:20:21.092Z,95130.2
2022-10-21T05:21:23.610Z,95133
2022-10-21T05:22:25.898Z,95129.2
2022-10-21T05:23:28.365Z,95129.9
2022-10-21T05:24:30.573Z,95134.3
2022-10-21T05:26:38.033Z,95130.5
2022-10-21T05:27:39.940Z,95132.7
2022-10-21T05:28:42.414Z,95131.4
2022-10-21T05:29:44.646Z,95138.5
2022-10-21T05:30:46.892Z,95135.3
2022-10-21T05:31:49.095Z,95136.7
2022-10-21T05:32:51.568Z,95144.3
2022-10-21T05:33:54.045Z,95142.9
2022-10-21T05:34:56.529Z,95151.6
2022-10-21T05:35:59.068Z,95146.6
2022-10-21T05:37:01.283Z,95148.6
2022-10-21T05:38:03.518Z,95149.8
2022-10-21T05:39:05.710Z,95146.3
2022-10-21T05:40:07.936Z,95143
2022-10-21T05:41:10.133Z,95149.8
2022-10-21T05:42:12.307Z,95145.9
2022-10-21T05:43:14.510Z,95149.8
2022-10-21T05:44:16.995Z,95150.5
2022-10-21T05:45:19.194Z,95149
2022-10-21T05:46:21.397Z,95152.3
2022-10-21T05:47:23.587Z,95152.5
2022-10-21T05:48:26.058Z,95147.9
2022-10-21T05:49:28.256Z,95146.4
2022-10-21T05:50:30.750Z,95144.3
2022-10-21T05:51:33.270Z,95145.4
2022-10-21T05:52:35.740Z,95144.6
2022-10-21T05:53:38.455Z,95139.4
2022-10-21T05:54:40.636Z,95140.8
2022-10-21T05:55:43.113Z,95143
2022-10-21T05:56:45.586Z,95138.6
2022-10-21T05:57:47.969Z,95131.2
2022-10-21T05:58:50.499Z,95134
2022-10-21T05:59:52.138Z,95129.2
2022-10-21T06:00:54.333Z,95139.7
2022-10-21T06:01:56.326Z,95145.2
2022-10-21T06:02:58.262Z,95146.9
2022-10-21T06:04:00.463Z,95148
2022-10-21T06:05:02.371Z,95145.4
2022-10-21T06:06:04.897Z,95149.2
2022-10-21T06:07:07.414Z,95143
2022-10-21T06:08:09.897Z,95143.6
2022-10-21T06:09:12.198Z,95143.4
2022-10-21T06:10:14.801Z,95146.8
2022-10-21T06:11:17.269Z,95146.4
2022-10-21T06:12:19.461Z,95150.2
2022-10-21T06:13:21.670Z,95150.8
2022-10-21T06:14:24.144Z,95151.6
2022-10-21T06:15:26.316Z,95150.5
2022-10-21T06:16:28.817Z,95153.1
2022-10-21T06:17:31.316Z,95149.4
2022-10-21T06:18:33.224Z,95152.6
2022-10-21T06:19:35.427Z,95147.7
2022-10-21T06:20:37.352Z,95152
2022-10-21T06:21:39.881Z,95155.4
2022-10-21T06:22:42.404Z,95159.2
2022-10-21T06:23:44.654Z,95160.9
2022-10-21T06:24:46.868Z,95161
2022-10-21T06:25:49.348Z,95166.9
2022-10-21T06:26:51.562Z,95166.5
2022-10-21T06:27:53.770Z,95163.3
2022-10-21T06:28:55.452Z,95170.4
2022-10-21T06:29:57.359Z,95170.1
2022-10-21T06:30:59.282Z,95166.2
2022-10-21T06:32:01.501Z,95159.8
2022-10-21T06:33:03.969Z,95154.5
2022-10-21T06:34:06.376Z,95153.3
2022-10-21T06:35:08.694Z,95155.1
2022-10-21T06:36:10.891Z,95155.6
2022-10-21T06:37:13.404Z,95156.5
2022-10-21T06:38:15.627Z,95155.9
2022-10-21T06:39:18.129Z,95157.6
2022-10-21T06:40:20.333Z,95156
2022-10-21T06:41:22.820Z,95152.7
2022-10-21T06:42:25.297Z,95145
2022-10-21T06:43:27.872Z,95138.6
2022-10-21T06:44:30.349Z,95141.7
2022-10-21T06:45:32.547Z,95139.2
2022-10-21T06:46:34.462Z,95139.9
2022-10-21T06:47:38.118Z,95137.1
2022-10-21T06:48:41.078Z,95134
2022-10-21T06:49:43.286Z,95134
2022-10-21T06:50:45.193Z,95128.6
2022-10-21T06:51:47.408Z,95121.3
2022-10-21T06:52:49.892Z,95117.9
2022-10-21T06:53:52.422Z,95116.9
2022-10-21T06:54:54.978Z,95120.4
2022-10-21T06:55:57.464Z,95124.5
2022-10-21T06:56:59.957Z,95127.7
2022-10-21T06:58:02.171Z,95130.3
2022-10-21T06:59:04.398Z,95128.1
2022-10-21T07:00:06.938Z,95125.7
2022-10-21T07:02:14.404Z,95125
2022-10-21T07:03:16.370Z,95126.3
2022-10-21T07:04:18.274Z,95123.6
2022-10-21T07:05:20.755Z,95119.3
2022-10-21T07:06:23.678Z,95119.7
2022-10-21T07:07:26.008Z,95116.3
2022-10-21T07:09:34.087Z,95109.9
2022-10-21T07:10:36.425Z,95109.7
2022-10-21T07:11:38.898Z,95113.6
2022-10-21T07:12:41.386Z,95118
2022-10-21T07:13:43.864Z,95120
2022-10-21T07:14:46.365Z,95115.2
2022-10-21T07:15:49.011Z,95113.3
2022-10-21T07:16:51.576Z,95113.3
2022-10-21T07:17:54.053Z,95115.9
2022-10-21T07:18:56.570Z,95119.7
2022-10-21T07:19:58.766Z,95120.9
2022-10-21T07:21:00.981Z,95121.7
2022-10-21T07:22:03.455Z,95115.8
2022-10-21T07:23:05.943Z,95116.6
2022-10-21T07:24:07.596Z,95112.4
2022-10-21T07:25:10.151Z,95115.2
2022-10-21T07:26:12.378Z,95108.3
2022-10-21T07:27:14.862Z,95105.3
2022-10-21T07:28:17.328Z,95096.5
2022-10-21T07:29:19.556Z,95100
2022-10-21T07:30:21.468Z,95096.9
2022-10-21T07:31:23.952Z,95092.6
2022-10-21T07:32:26.164Z,95099.4
2022-10-21T07:33:28.375Z,95099
2022-10-21T07:34:30.600Z,95097.5
2022-10-21T07:35:33.076Z,95098.6
2022-10-21T07:36:35.552Z,95097.6
2022-10-21T07:37:39.421Z,95100.3
2022-10-21T07:38:42.561Z,95095.8
2022-10-21T07:39:44.488Z,95097.1
2022-10-21T07:40:47.028Z,95095.4
2022-10-21T07:41:49.549Z,95092.7
2022-10-21T07:42:52.024Z,95091.1
2022-10-21T07:43:54.532Z,95089.8
2022-10-21T07:44:56.998Z,95088.3
2022-10-21T07:47:04.507Z,95094.2
2022-10-21T07:48:06.736Z,95090
2022-10-21T07:49:08.945Z,95093
2022-10-21T07:50:10.907Z,95089.9
2022-10-21T07:51:13.094Z,95086.2
2022-10-21T07:52:16.094Z,95088.5
2022-10-21T07:53:20.489Z,95083.3
2022-10-21T07:54:22.919Z,95084.8
2022-10-21T07:55:25.419Z,95085.4
2022-10-21T07:56:27.962Z,95080.7
2022-10-21T07:57:30.448Z,95083.3
2022-10-21T07:58:32.928Z,95083.3
2022-10-21T07:59:35.404Z,95083.4
2022-10-21T08:00:38.236Z,95084.9
2022-10-21T08:01:41.287Z,95082.2
2022-10-21T08:02:43.980Z,95083.4
2022-10-21T08:03:46.154Z,95086.6
2022-10-21T08:04:48.340Z,95087
2022-10-21T08:05:50.258Z,95086.4
2022-10-21T08:06:52.746Z,95084.7
2022-10-21T08:07:54.935Z,95077.8
2022-10-21T08:08:57.713Z,95076.1
2022-10-21T08:09:59.725Z,95082.9
2022-10-21T08:11:02.830Z,95079.5
2022-10-21T08:12:05.628Z,95082.1
2022-10-21T08:13:07.327Z,95080
2022-10-21T08:14:09.800Z,95077.9
2022-10-21T08:15:12.278Z,95079.5
2022-10-21T08:16:14.770Z,95083.2
2022-10-21T08:17:16.989Z,95084
2022-10-21T08:18:19.464Z,95086.9
2022-10-21T08:19:21.379Z,95079.2
2022-10-21T08:20:23.596Z,95081.4
2022-10-21T08:21:25.832Z,95075.5
2022-10-21T08:22:28.005Z,95080.5
2022-10-21T08:23:30.509Z,95078.9
2022-10-21T08:24:32.685Z,95081.2
2022-10-21T08:25:34.898Z,95084.4
2022-10-21T08:26:37.368Z,95086.5
2022-10-21T08:27:39.612Z,95081.8
2022-10-21T08:28:41.841Z,95085.3
2022-10-21T08:29:44.051Z,95084.2
2022-10-21T08:30:46.545Z,95081.5
2022-10-21T08:31:49.039Z,95082
2022-10-21T08:32:51.244Z,95085.7
2022-10-21T08:33:53.758Z,95085.2
2022-10-21T08:34:56.228Z,95084.3
2022-10-21T08:35:58.201Z,95085.1
2022-10-21T08:37:00.152Z,95084.4
2022-10-21T08:38:02.597Z,95081.7
2022-10-21T08:39:05.209Z,95083.1
2022-10-21T08:40:07.427Z,95084.8
2022-10-21T08:41:09.904Z,95086.6
2022-10-21T08:42:11.833Z,95088.6
2022-10-21T08:43:14.098Z,95090.5
2022-10-21T08:44:16.600Z,95090.5
2022-10-21T08:45:19.075Z,95085.8
2022-10-21T08:46:21.551Z,95089.4
2022-10-21T08:47:23.732Z,95090.3
2022-10-21T08:48:26.270Z,95085.7
2022-10-21T08:50:33.752Z,95087.9
2022-10-21T08:51:36.259Z,95091.8
2022-10-21T08:52:38.199Z,95092.5
2022-10-21T08:53:40.667Z,95094.5
2022-10-21T08:54:42.623Z,95094.1
2022-10-21T08:55:45.129Z,95098.1
2022-10-21T08:56:47.430Z,95093.9
2022-10-21T08:57:49.916Z,95094.7
2022-10-21T08:58:52.502Z,95095.2
2022-10-21T08:59:55.015Z,95096
2022-10-21T09:00:57.232Z,95097.9
2022-10-21T09:01:59.455Z,95099.6
2022-10-21T09:03:02.095Z,95099.1
2022-10-21T09:04:04.185Z,95101.5
2022-10-21T09:05:06.388Z,95095.9
2022-10-21T09:06:08.611Z,95094.1
2022-10-21T09:07:10.515Z,95101.6
2022-10-21T09:08:12.751Z,95101.6
2022-10-21T09:09:15.516Z,95103.5
2022-10-21T09:10:18.515Z,95106.1
2022-10-21T09:11:20.722Z,95102.4
2022-10-21T09:12:22.669Z,95107.3
2022-10-21T09:13:24.592Z,95109.4
2022-10-21T09:14:27.338Z,95104.8
2022-10-21T09:15:29.727Z,95107.4
2022-10-21T09:16:32.226Z,95112.3
2022-10-21T09:17:34.433Z,95119
2022-10-21T09:18:36.648Z,95116.3
2022-10-21T09:19:39.138Z,95119.3
2022-10-21T09:20:41.817Z,95123.8
2022-10-21T09:21:44.307Z,95123.8
2022-10-21T09:22:47.446Z,95118.2
2022-10-21T09:23:49.966Z,95120.3
2022-10-21T09:24:52.440Z,95122.1
2022-10-21T09:25:54.101Z,95122.4
2022-10-21T09:26:56.589Z,95130.4
2022-10-21T09:28:00.598Z,95130.1
2022-10-21T09:29:03.399Z,95128.5
2022-10-21T09:30:05.687Z,95133
2022-10-21T09:31:07.902Z,95133.1
2022-10-21T09:32:10.085Z,95144.3
2022-10-21T09:33:12.563Z,95146.1
2022-10-21T09:34:15.158Z,95155.1
2022-10-21T09:35:17.376Z,95158.6
2022-10-21T09:36:19.280Z,95162
2022-10-21T09:37:21.789Z,95167.4
2022-10-21T09:38:23.696Z,95168.1
2022-10-21T09:39:26.230Z,95175.8
2022-10-21T09:40:28.699Z,95184.3
2022-10-21T09:41:30.660Z,95190
2022-10-21T09:43:38.126Z,95221.3
2022-10-21T09:44:40.628Z,95234.3
2022-10-21T09:45:42.876Z,95252.7
2022-10-21T09:46:45.440Z,95262.7
2022-10-21T09:47:47.384Z,95260.3
2022-10-21T09:50:59.595Z,95254.2
2022-10-21T09:52:01.807Z,95257.6
2022-10-21T09:53:04.012Z,95257.8
2022-10-21T09:54:05.973Z,95270.2
2022-10-21T09:55:08.488Z,95278.3
2022-10-21T09:56:10.954Z,95280.6
2022-10-21T09:57:13.446Z,95274.3
2022-10-21T09:58:15.932Z,95263.7
2022-10-21T09:59:17.843Z,95257.5
2022-10-21T10:00:19.765Z,95257.8
2022-10-21T10:01:22.035Z,95272
2022-10-21T10:02:24.582Z,95281
2022-10-21T10:03:26.570Z,95279
2022-10-21T10:04:28.771Z,95266.8
2022-10-21T10:05:30.984Z,95268.2
2022-10-21T10:06:33.464Z,95268.1
2022-10-21T10:07:35.645Z,95281
2022-10-21T10:08:38.797Z,95282.2
2022-10-21T10:09:40.881Z,95276.2
2022-10-21T10:10:43.385Z,95276.8
2022-10-21T10:11:45.578Z,95279.2
2022-10-21T10:12:47.530Z,95281.3
2022-10-21T10:13:49.455Z,95273.6
2022-10-21T10:14:51.649Z,95280.1
2022-10-21T10:15:53.558Z,95284.3
2022-10-21T10:16:55.831Z,95291.4
2022-10-21T10:17:58.042Z,95291.2
2022-10-21T10:18:59.983Z,95294.2
2022-10-21T10:20:02.458Z,95295.5
2022-10-21T10:21:04.972Z,95297
2022-10-21T10:23:12.432Z,95305.8
2022-10-21T10:24:14.078Z,95308
2022-10-21T10:25:16.070Z,95311.6
2022-10-21T10:26:17.741Z,95316.7
2022-10-21T10:27:20.220Z,95310.3
2022-10-21T10:28:22.146Z,95307.8
2022-10-21T10:29:24.055Z,95310.5
2022-10-21T10:30:25.710Z,95316.2
2022-10-21T10:31:28.185Z,95313.1
2022-10-21T10:32:30.729Z,95316.2
2022-10-21T10:33:33.099Z,95318
2022-10-21T10:34:35.583Z,95318.1
2022-10-21T10:35:38.055Z,95319.6
2022-10-21T10:36:40.532Z,95319.8
2022-10-21T10:37:44.057Z,95319.9
2022-10-21T10:38:46.540Z,95314.8
2022-10-21T10:39:49.022Z,95308.2
2022-10-21T10:41:58.476Z,95289.7
2022-10-21T10:43:00.947Z,95290
2022-10-21T10:44:03.429Z,95282.1
2022-10-21T10:45:05.651Z,95285.3
2022-10-21T10:46:07.607Z,95279.7
2022-10-21T10:47:09.809Z,95283
2022-10-21T10:48:12.631Z,95280.1
2022-10-21T10:49:15.074Z,95270.1
2022-10-21T10:50:17.327Z,95264
2022-10-21T10:51:19.542Z,95279.6
2022-10-21T10:52:22.076Z,95293.3
2022-10-21T10:53:24.649Z,95295.5
2022-10-21T10:54:26.836Z,95294.7
2022-10-21T10:55:28.750Z,95318
2022-10-21T10:56:30.946Z,95322.1
2022-10-21T10:58:38.257Z,95306.2
2022-10-21T10:59:40.462Z,95309.2
2022-10-21T11:00:43.079Z,95314.6
2022-10-21T11:01:45.503Z,95320.3
2022-10-21T11:02:47.407Z,95315.5
2022-10-21T11:03:50.199Z,95315.1
2022-10-21T11:05:55.605Z,95317.5
2022-10-21T11:06:57.562Z,95313.2
2022-10-21T11:08:00.044Z,95314.4
2022-10-21T11:09:02.561Z,95327.8
2022-10-21T11:10:04.916Z,95331.4
2022-10-21T11:11:07.127Z,95345.9
2022-10-21T11:12:09.335Z,95352.1
2022-10-21T11:13:11.562Z,95343.9
2022-10-21T11:15:19.657Z,95353
2022-10-21T11:16:21.838Z,95351.9
2022-10-21T11:17:24.320Z,95353.1
2022-10-21T11:18:26.732Z,95363.2
2022-10-21T11:19:29.594Z,95366.1
2022-10-21T11:20:31.920Z,95376
2022-10-21T11:21:34.151Z,95388.1
2022-10-21T11:22:36.098Z,95382.1
2022-10-21T11:23:38.563Z,95372.8
2022-10-21T11:24:40.551Z,95368.8
2022-10-21T11:25:42.441Z,95372
2022-10-21T11:26:44.655Z,95367.6
2022-10-21T11:27:46.591Z,95364.5
2022-10-21T11:28:49.253Z,95364.1
2022-10-21T11:29:51.718Z,95362
2022-10-21T11:30:53.760Z,95359.9
2022-10-21T11:33:00.397Z,95357.3
2022-10-21T11:34:02.325Z,95366.7
2022-10-21T11:35:05.142Z,95367.9
2022-10-21T11:36:07.741Z,95367.7
2022-10-21T11:37:10.226Z,95373.1
2022-10-21T11:38:12.159Z,95368.4
2022-10-21T11:39:15.624Z,95368.9
2022-10-21T11:40:20.545Z,95358.6
2022-10-21T11:42:28.018Z,95354.5
2022-10-21T11:43:30.219Z,95359.4
2022-10-21T11:44:32.141Z,95363.7
2022-10-21T11:45:34.067Z,95364.8
2022-10-21T11:46:36.654Z,95363
2022-10-21T11:47:39.125Z,95357.3
2022-10-21T11:48:41.039Z,95357.6
2022-10-21T11:49:43.524Z,95355.6
2022-10-21T11:50:46.362Z,95354.8
2022-10-21T11:51:48.953Z,95346.8
2022-10-21T11:52:51.155Z,95341.8
2022-10-21T11:53:53.370Z,95339.2
2022-10-21T11:56:00.830Z,95340.9
2022-10-21T11:57:03.310Z,95345.2
2022-10-21T11:58:05.232Z,95345
2022-10-21T11:59:07.709Z,95348.8
2022-10-21T12:00:10.181Z,95344.7
2022-10-21T12:01:12.664Z,95341.3
2022-10-21T12:02:15.556Z,95339.5
2022-10-21T12:03:18.230Z,95345.8
2022-10-21T12:04:20.468Z,95343.7
2022-10-21T12:05:22.403Z,95349.3
2022-10-21T12:06:24.941Z,95345.9
2022-10-21T12:07:27.531Z,95346.5
2022-10-21T12:08:30.071Z,95347
2022-10-21T12:09:32.308Z,95347.5
2022-10-21T12:10:34.803Z,95348.8
2022-10-21T12:11:37.317Z,95346.5
2022-10-21T12:12:41.507Z,95347.3
2022-10-21T12:13:44.194Z,95343.1
2022-10-21T12:14:46.100Z,95346.8
2022-10-21T12:15:48.599Z,95347.6
2022-10-21T12:16:51.092Z,95350.7
2022-10-21T12:17:53.416Z,95351.6
2022-10-21T12:18:55.965Z,95349
2022-10-21T12:19:58.209Z,95345.1
2022-10-21T12:21:00.688Z,95344
2022-10-21T12:22:03.229Z,95342.3
2022-10-21T12:23:05.533Z,95340.8
2022-10-21T12:24:07.735Z,95340.5
2022-10-21T12:25:09.939Z,95339.7
2022-10-21T12:26:12.426Z,95339.2
2022-10-21T12:27:14.617Z,95341.8
2022-10-21T12:28:16.562Z,95339.9
2022-10-21T12:29:19.037Z,95343.6
2022-10-21T12:31:26.229Z,95333.5
2022-10-21T12:32:28.719Z,95338.8
2022-10-21T12:33:30.761Z,95336.3
2022-10-21T12:34:32.949Z,95343.3
2022-10-21T12:35:35.142Z,95339.8
2022-10-21T12:36:37.446Z,95340.1
2022-10-21T12:37:41.109Z,95340.4
2022-10-21T12:38:43.509Z,95342.8
2022-10-21T12:39:45.999Z,95339.3
2022-10-21T12:40:48.211Z,95339
2022-10-21T12:41:50.681Z,95344.1
2022-10-21T12:42:52.597Z,95340.2
2022-10-21T12:43:55.067Z,95343.9
2022-10-21T12:44:57.268Z,95343.9
2022-10-21T12:45:59.478Z,95340.5
2022-10-21T12:47:01.964Z,95349.8
2022-10-21T12:48:04.455Z,95349.4
2022-10-21T12:49:07.026Z,95345.9
2022-10-21T12:50:09.494Z,95345.7
2022-10-21T12:51:11.734Z,95345.7
2022-10-21T12:52:13.940Z,95349.8
2022-10-21T12:53:16.514Z,95352.7
2022-10-21T12:54:18.484Z,95351.8
2022-10-21T12:55:20.195Z,95350.2
2022-10-21T12:56:22.662Z,95349.5
2022-10-21T12:57:24.606Z,95348
2022-10-21T12:58:27.082Z,95343.9
2022-10-21T12:59:29.567Z,95342.3
2022-10-21T13:00:32.048Z,95338.7
2022-10-21T13:01:34.605Z,95342.6
2022-10-21T13:02:37.550Z,95344.8
2022-10-21T13:03:40.040Z,95344.6
2022-10-21T13:04:42.532Z,95347.7